Time;durP1;ratioP1;P1;durP2;ratioP2;P2;SDS_P1;SDS_P2;PMS_P1;PMS_P2;Temp;Humidity;BMP_temperature;BMP_pressure;BME280_temperature;BME280_humidity;BME280_pressure;Samples;Min_cycle;Max_cycle;Signal;HPM_P1;HPM_P2
2021/07/29 00:02:46;;;;;;;5.53;5.03;;;16.40;99.90;;;;;;6237287;22;20769;-86
2021/07/29 00:05:53;;;;;;;;;;;;;;;;;;;;;
2021/07/29 00:19:11;;;;;;;;;;;;;;;;;;;;;
2021/07/29 00:35:44;;;;;;;5.93;5.37;;;16.10;99.90;;;;;;6070797;23;20409;-89
2021/07/29 00:42:59;;;;;;;6.57;5.97;;;16.10;99.90;;;;;;5970106;23;20486;-89
2021/07/29 00:50:36;;;;;;;6.37;5.67;;;15.90;99.90;;;;;;6261794;22;20452;-87
2021/07/29 00:53:04;;;;;;;6.60;5.87;;;15.80;99.90;;;;;;6239537;22;20393;-89
2021/07/29 01:24:38;;;;;;;5.90;5.40;;;15.60;99.90;;;;;;6261049;22;20440;-87
2021/07/29 01:27:06;;;;;;;6.60;6.00;;;15.70;99.90;;;;;;6240290;22;20883;-88
2021/07/29 01:29:41;;;;;;;6.17;5.60;;;15.70;99.90;;;;;;6239422;22;20460;-90
2021/07/29 01:32:09;;;;;;;6.00;5.50;;;15.80;99.90;;;;;;6240070;22;20400;-89
2021/07/29 01:34:42;;;;;;;6.50;5.50;;;15.80;99.90;;;;;;6235093;22;20393;-88
2021/07/29 01:37:21;;;;;;;6.03;5.43;;;15.80;99.90;;;;;;6238913;22;20401;-89
2021/07/29 01:39:56;;;;;;;8.80;5.90;;;15.80;99.90;;;;;;6237750;22;20404;-89
2021/07/29 01:42:21;;;;;;;6.30;5.70;;;15.70;99.90;;;;;;6263663;22;20767;-89
2021/07/29 01:44:49;;;;;;;5.80;5.30;;;15.60;99.90;;;;;;6238561;22;20432;-89
2021/07/29 01:47:18;;;;;;;6.83;6.13;;;15.60;99.90;;;;;;6240105;22;20770;-88
2021/07/29 01:49:53;;;;;;;7.40;6.10;;;15.70;99.90;;;;;;6239472;22;20570;-88
2021/07/29 01:52:34;;;;;;;6.47;5.87;;;15.60;99.90;;;;;;6239813;22;20706;-89
2021/07/29 01:55:13;;;;;;;6.47;5.80;;;15.60;99.90;;;;;;6239110;22;20397;-89
2021/07/29 01:57:47;;;;;;;7.53;6.10;;;15.50;99.90;;;;;;6237962;22;20515;-89
2021/07/29 02:00:35;;;;;;;5.80;5.30;;;15.50;99.90;;;;;;6267636;22;20388;-89
2021/07/29 02:06:02;;;;;;;6.03;5.50;;;15.50;99.90;;;;;;6265885;22;20429;-88
2021/07/29 02:08:33;;;;;;;5.83;5.33;;;15.50;99.90;;;;;;6239721;22;20766;-89
2021/07/29 02:11:02;;;;;;;5.80;5.20;;;15.40;99.90;;;;;;6238466;22;20392;-89
2021/07/29 02:13:45;;;;;;;6.10;4.93;;;15.30;99.90;;;;;;6236915;22;20397;-89
2021/07/29 02:17:08;;;;;;;;;;;;;;;;;;;;;
2021/07/29 02:20:45;;;;;;;;;;;;;;;;;;;;;
2021/07/29 02:23:52;;;;;;;;;;;;;;;;;;;;;
2021/07/29 03:10:58;;;;;;;6.80;6.13;;;15.50;99.90;;;;;;6229668;22;20443;-87
2021/07/29 03:14:16;;;;;;;7.10;6.37;;;15.50;99.90;;;;;;6236825;22;20408;-87
2021/07/29 03:20:48;;;;;;;7.03;6.30;;;15.40;99.90;;;;;;6266359;22;20447;-88
2021/07/29 04:00:09;;;;;;;7.60;6.57;;;14.90;99.90;;;;;;6251012;22;20451;-87
2021/07/29 04:08:45;;;;;;;8.83;6.67;;;14.90;99.90;;;;;;6235548;22;20460;-89
2021/07/29 04:11:46;;;;;;;7.03;5.73;;;14.90;99.90;;;;;;6251302;22;20397;-89
2021/07/29 04:14:37;;;;;;;5.70;5.20;;;14.90;99.90;;;;;;6241843;22;20399;-88
2021/07/29 04:17:03;;;;;;;7.47;6.17;;;14.90;99.90;;;;;;6237851;22;20393;-86
2021/07/29 04:19:36;;;;;;;7.37;6.37;;;14.90;99.90;;;;;;6237709;22;20389;-86
2021/07/29 04:22:16;;;;;;;6.30;5.80;;;14.90;99.90;;;;;;6239402;22;20850;-87
2021/07/29 04:25:25;;;;;;;8.40;6.30;;;15.00;99.90;;;;;;6237079;22;20440;-87
2021/07/29 04:44:11;;;;;;;8.63;5.40;;;15.70;99.90;;;;;;6236045;22;20506;-81
2021/07/29 04:46:39;;;;;;;6.17;5.17;;;15.80;99.90;;;;;;6237633;22;20408;-81
2021/07/29 04:49:06;;;;;;;5.50;5.00;;;15.90;99.90;;;;;;6265143;22;20490;-81
2021/07/29 04:51:33;;;;;;;5.57;5.00;;;16.00;99.90;;;;;;6237968;22;20731;-82
2021/07/29 04:53:59;;;;;;;7.27;6.10;;;16.00;99.90;;;;;;6239022;22;20871;-81
2021/07/29 04:56:24;;;;;;;6.30;5.70;;;16.00;99.90;;;;;;6239715;22;20411;-81
2021/07/29 04:58:50;;;;;;;5.93;5.43;;;16.00;99.90;;;;;;6264674;22;20484;-82
2021/07/29 05:01:17;;;;;;;5.80;5.20;;;16.10;99.90;;;;;;6238497;22;20588;-82
2021/07/29 05:03:43;;;;;;;7.40;5.80;;;16.20;99.90;;;;;;6236003;22;20162;-81
2021/07/29 05:06:08;;;;;;;7.00;5.67;;;16.20;99.90;;;;;;6236916;22;20458;-82
2021/07/29 05:08:35;;;;;;;6.77;5.33;;;16.20;99.90;;;;;;6237946;22;20584;-81
2021/07/29 05:11:05;;;;;;;6.30;4.90;;;16.30;99.90;;;;;;6237618;22;20652;-81
2021/07/29 05:13:31;;;;;;;6.20;5.20;;;16.30;99.90;;;;;;6238381;22;20506;-82
2021/07/29 05:15:57;;;;;;;5.00;4.60;;;16.40;99.90;;;;;;6239833;22;20408;-81
2021/07/29 05:18:23;;;;;;;6.87;5.40;;;16.50;99.90;;;;;;6237666;22;20850;-82
2021/07/29 05:20:49;;;;;;;5.73;4.37;;;16.50;99.90;;;;;;6237652;22;20517;-82
2021/07/29 05:23:15;;;;;;;4.87;4.47;;;16.50;99.90;;;;;;6238588;22;20169;-81
2021/07/29 05:25:41;;;;;;;4.93;4.43;;;16.60;99.90;;;;;;6265376;22;20240;-82
2021/07/29 05:28:07;;;;;;;5.33;4.30;;;16.60;99.90;;;;;;6240016;22;20165;-81
2021/07/29 05:30:35;;;;;;;5.07;4.67;;;16.60;99.90;;;;;;6238613;22;20894;-81
2021/07/29 05:33:01;;;;;;;5.00;4.50;;;16.60;99.90;;;;;;6239548;22;20393;-82
2021/07/29 05:35:27;;;;;;;5.33;4.83;;;16.80;99.90;;;;;;6264792;22;20578;-82
2021/07/29 05:37:53;;;;;;;5.20;4.80;;;16.80;99.90;;;;;;6239483;22;20513;-81
2021/07/29 05:40:19;;;;;;;5.23;4.40;;;16.90;99.90;;;;;;6237072;22;20533;-82
2021/07/29 05:42:45;;;;;;;5.40;4.90;;;16.90;99.90;;;;;;6240048;22;20163;-81
2021/07/29 05:45:11;;;;;;;5.57;4.40;;;17.00;99.90;;;;;;6237961;22;20449;-81
2021/07/29 05:47:36;;;;;;;5.00;4.50;;;17.10;99.90;;;;;;6231696;22;20555;-81
2021/07/29 05:50:03;;;;;;;5.43;4.93;;;17.10;99.90;;;;;;6238206;22;20770;-81
2021/07/29 05:52:28;;;;;;;4.33;3.93;;;17.20;99.90;;;;;;6240345;22;20166;-81
2021/07/29 05:54:55;;;;;;;7.57;5.23;;;17.30;99.90;;;;;;6237859;22;20409;-81
2021/07/29 05:57:21;;;;;;;4.40;4.00;;;17.30;99.90;;;;;;6240085;22;20705;-82
2021/07/29 05:59:48;;;;;;;4.40;4.10;;;17.40;99.90;;;;;;6239031;22;20616;-81
2021/07/29 06:02:14;;;;;;;4.97;4.47;;;17.50;99.90;;;;;;6237577;22;20497;-81
2021/07/29 06:04:39;;;;;;;7.20;4.97;;;17.50;99.90;;;;;;6266477;22;20428;-81
2021/07/29 06:07:05;;;;;;;6.90;4.53;;;17.50;99.90;;;;;;6239858;22;20208;-81
2021/07/29 06:09:31;;;;;;;6.77;4.33;;;17.40;99.90;;;;;;6263766;22;20608;-82
2021/07/29 06:11:57;;;;;;;5.53;4.97;;;17.40;99.90;;;;;;6237943;22;20215;-82
2021/07/29 06:14:23;;;;;;;5.60;5.13;;;17.40;99.90;;;;;;6240150;22;20691;-81
2021/07/29 06:16:48;;;;;;;4.90;4.40;;;17.60;99.90;;;;;;6239155;22;20428;-81
2021/07/29 06:19:29;;;;;;;6.67;4.63;;;17.60;99.90;;;;;;6239666;22;20220;-81
2021/07/29 06:21:58;;;;;;;5.10;4.70;;;17.80;99.90;;;;;;6240221;22;20337;-82
2021/07/29 06:24:27;;;;;;;5.23;4.73;;;17.90;99.90;;;;;;6240022;22;20478;-81
2021/07/29 06:26:53;;;;;;;5.73;5.13;;;18.10;99.90;;;;;;6240870;22;20435;-81
2021/07/29 06:29:19;;;;;;;5.20;4.50;;;18.40;99.90;;;;;;6240729;22;20403;-81
2021/07/29 06:31:45;;;;;;;5.50;4.90;;;18.50;99.90;;;;;;6241187;22;20736;-81
2021/07/29 06:34:11;;;;;;;5.23;4.73;;;18.40;99.90;;;;;;6240572;22;20391;-82
2021/07/29 06:36:37;;;;;;;6.00;4.70;;;18.30;99.90;;;;;;6267726;22;20791;-82
2021/07/29 06:39:11;;;;;;;4.87;4.37;;;18.20;99.90;;;;;;6266240;22;20608;-82
2021/07/29 06:41:38;;;;;;;4.57;4.17;;;18.20;99.90;;;;;;6240922;22;20305;-82
2021/07/29 06:44:06;;;;;;;4.03;3.73;;;18.30;99.90;;;;;;6238422;22;20433;-82
2021/07/29 06:46:34;;;;;;;4.77;4.37;;;18.40;99.90;;;;;;6265341;22;20795;-82
2021/07/29 06:49:00;;;;;;;4.80;4.37;;;18.60;99.90;;;;;;6266482;22;20382;-80
2021/07/29 06:51:25;;;;;;;4.83;4.43;;;18.70;99.90;;;;;;6265484;22;20385;-81
2021/07/29 06:53:51;;;;;;;4.67;4.03;;;18.70;99.90;;;;;;6266144;22;20182;-81
2021/07/29 06:56:17;;;;;;;8.43;3.77;;;18.70;99.90;;;;;;6238293;22;20196;-81
2021/07/29 06:58:43;;;;;;;4.37;3.97;;;18.70;99.90;;;;;;6239039;22;20393;-82
2021/07/29 07:01:08;;;;;;;4.53;4.13;;;18.70;99.90;;;;;;6237462;22;20169;-81
2021/07/29 07:03:35;;;;;;;4.17;3.87;;;18.80;99.90;;;;;;6237987;22;20738;-82
2021/07/29 07:06:05;;;;;;;4.70;4.20;;;18.90;99.90;;;;;;6239903;22;20307;-81
2021/07/29 07:08:31;;;;;;;7.53;3.70;;;18.90;99.90;;;;;;6239391;22;20389;-82
2021/07/29 07:10:57;;;;;;;4.50;4.10;;;19.00;99.90;;;;;;6238810;22;20412;-81
2021/07/29 07:13:22;;;;;;;4.03;3.50;;;19.20;99.90;;;;;;6238411;22;20248;-81
2021/07/29 07:15:48;;;;;;;3.93;3.63;;;19.30;99.90;;;;;;6239358;22;20277;-81
2021/07/29 07:18:14;;;;;;;3.67;3.37;;;19.30;99.90;;;;;;6238309;22;20208;-82
2021/07/29 07:20:40;;;;;;;3.23;2.93;;;19.40;99.90;;;;;;6238844;22;20169;-81
2021/07/29 07:23:05;;;;;;;4.27;3.70;;;19.50;99.90;;;;;;6232225;22;20169;-82
2021/07/29 07:25:33;;;;;;;4.70;3.70;;;19.70;99.90;;;;;;6237097;22;20190;-82
2021/07/29 07:28:00;;;;;;;3.40;3.10;;;19.80;99.90;;;;;;6239211;22;20542;-82
2021/07/29 07:30:26;;;;;;;3.37;3.07;;;20.00;99.90;;;;;;6238330;22;20526;-81
2021/07/29 07:32:51;;;;;;;3.30;3.00;;;20.00;99.90;;;;;;6237912;22;20389;-81
2021/07/29 07:35:17;;;;;;;4.40;3.17;;;20.10;99.90;;;;;;6238630;22;20648;-83
2021/07/29 07:37:43;;;;;;;4.10;3.40;;;20.10;99.90;;;;;;6240095;22;20186;-81
2021/07/29 07:40:09;;;;;;;3.27;2.97;;;20.20;99.90;;;;;;6237770;22;20176;-80
2021/07/29 07:42:35;;;;;;;3.87;3.20;;;20.40;99.90;;;;;;6236794;22;20643;-81
2021/07/29 07:45:01;;;;;;;3.73;3.43;;;20.40;99.90;;;;;;6235589;22;20448;-79
2021/07/29 07:47:28;;;;;;;4.63;3.40;;;20.50;99.90;;;;;;6238124;22;20264;-79
2021/07/29 07:49:58;;;;;;;5.87;3.87;;;20.30;99.90;;;;;;6236897;22;20236;-91
2021/07/29 08:05:56;;;;;;;3.30;3.00;;;20.90;99.90;;;;;;6230753;22;20788;-91
2021/07/29 08:08:24;;;;;;;4.90;3.20;;;21.60;99.90;;;;;;6171010;23;20395;-89
2021/07/29 08:11:21;;;;;;;2.90;2.70;;;22.00;99.90;;;;;;6266744;22;20892;-93
2021/07/29 08:17:33;;;;;;;3.80;3.40;;;21.80;99.90;;;;;;6182058;22;20834;-88
2021/07/29 08:20:24;;;;;;;3.80;3.40;;;22.10;99.90;;;;;;6204700;23;20568;-87
2021/07/29 08:23:09;;;;;;;3.63;3.37;;;21.90;99.50;;;;;;6202921;23;20410;-88
2021/07/29 08:28:44;;;;;;;3.73;3.40;;;21.80;99.80;;;;;;6267574;22;20463;-90
2021/07/29 08:31:19;;;;;;;3.83;3.20;;;21.60;99.90;;;;;;6290446;22;20482;-86
2021/07/29 08:39:17;;;;;;;4.63;4.10;;;21.50;99.90;;;;;;6294800;22;20388;-86
2021/07/29 08:41:56;;;;;;;3.57;3.27;;;21.50;99.90;;;;;;6268076;22;20404;-87
2021/07/29 08:44:21;;;;;;;4.27;3.90;;;21.40;99.90;;;;;;6293140;22;20455;-86
2021/07/29 08:46:51;;;;;;;4.10;3.80;;;21.30;99.90;;;;;;6292024;22;20960;-88
2021/07/29 08:49:27;;;;;;;4.40;4.00;;;21.30;99.90;;;;;;6268860;22;20169;-87
2021/07/29 08:51:56;;;;;;;3.37;3.00;;;21.50;99.90;;;;;;6294036;22;20815;-89
2021/07/29 08:54:37;;;;;;;3.27;3.00;;;21.60;99.90;;;;;;6296406;22;20380;-86
2021/07/29 08:57:27;;;;;;;3.50;3.30;;;21.40;99.90;;;;;;6264588;22;20865;-88
2021/07/29 08:59:56;;;;;;;3.80;3.50;;;21.40;99.90;;;;;;6269121;22;20408;-86
2021/07/29 09:05:21;;;;;;;3.57;3.37;;;21.50;99.90;;;;;;6284636;22;20520;-88
2021/07/29 09:08:19;;;;;;;3.57;3.27;;;21.50;99.90;;;;;;6270632;22;20414;-87
2021/07/29 09:10:53;;;;;;;4.00;3.23;;;22.00;99.90;;;;;;6259722;22;20392;-86
2021/07/29 09:13:23;;;;;;;3.80;3.50;;;22.20;98.20;;;;;;6268494;22;20392;-88
2021/07/29 09:16:16;;;;;;;4.60;4.23;;;22.30;97.50;;;;;;6293888;22;20446;-86
2021/07/29 09:18:41;;;;;;;4.20;3.80;;;22.30;97.60;;;;;;6268081;22;20384;-86
2021/07/29 09:21:29;;;;;;;3.90;3.50;;;22.30;98.40;;;;;;6292615;22;21096;-89
2021/07/29 09:24:06;;;;;;;3.87;3.37;;;22.70;97.50;;;;;;6267654;22;20219;-89
2021/07/29 09:26:57;;;;;;;4.40;4.00;;;22.70;97.70;;;;;;6268605;22;20404;-89
2021/07/29 09:29:25;;;;;;;3.83;3.53;;;22.90;97.20;;;;;;6267368;22;20423;-88
2021/07/29 09:32:25;;;;;;;3.47;3.17;;;23.20;96.50;;;;;;6266001;22;20675;-88
2021/07/29 09:37:25;;;;;;;4.33;3.73;;;22.80;95.40;;;;;;6295589;22;20394;-86
2021/07/29 09:40:32;;;;;;;5.13;3.57;;;22.60;96.40;;;;;;6293185;22;21114;-88
2021/07/29 09:43:13;;;;;;;3.90;3.60;;;23.00;96.00;;;;;;6266108;22;20165;-87
2021/07/29 09:45:58;;;;;;;4.00;3.70;;;23.70;94.90;;;;;;6267693;22;20447;-87
2021/07/29 09:48:38;;;;;;;3.83;3.50;;;23.40;94.20;;;;;;6261831;22;20419;-87
2021/07/29 09:51:28;;;;;;;6.07;4.40;;;23.00;94.90;;;;;;6295032;22;20557;-86
2021/07/29 09:54:22;;;;;;;3.63;3.37;;;22.80;96.50;;;;;;6288409;22;20388;-88
2021/07/29 09:56:50;;;;;;;4.13;3.70;;;22.40;97.40;;;;;;6294098;22;20392;-86
2021/07/29 09:59:16;;;;;;;3.97;3.57;;;22.00;97.90;;;;;;6294921;22;20376;-83
2021/07/29 10:01:42;;;;;;;3.73;3.43;;;22.00;97.90;;;;;;6296282;22;20809;-83
2021/07/29 10:04:10;;;;;;;4.30;3.93;;;22.50;97.70;;;;;;6269011;22;20185;-85
2021/07/29 10:06:37;;;;;;;4.40;3.93;;;22.90;97.20;;;;;;6297390;22;20475;-83
2021/07/29 10:09:13;;;;;;;4.20;3.80;;;22.60;96.90;;;;;;6268545;22;20441;-85
2021/07/29 10:11:44;;;;;;;4.57;3.23;;;22.50;95.90;;;;;;6268533;22;20485;-82
2021/07/29 10:14:10;;;;;;;4.27;3.87;;;22.30;96.60;;;;;;6295827;22;20415;-82
2021/07/29 10:16:50;;;;;;;4.37;3.97;;;22.10;95.80;;;;;;6270010;22;20710;-81
2021/07/29 10:19:20;;;;;;;4.27;3.80;;;22.30;96.10;;;;;;6270660;22;20392;-82
2021/07/29 10:21:46;;;;;;;4.23;3.77;;;22.50;95.80;;;;;;6269874;22;20396;-82
2021/07/29 10:24:13;;;;;;;4.10;3.70;;;22.60;95.40;;;;;;6294565;22;20428;-83
2021/07/29 10:27:03;;;;;;;4.23;3.93;;;22.90;94.70;;;;;;6270243;22;20774;-82
2021/07/29 10:29:30;;;;;;;3.33;3.07;;;23.30;94.60;;;;;;6267485;22;20396;-83
2021/07/29 10:32:09;;;;;;;4.37;3.97;;;23.60;95.00;;;;;;6269325;22;20450;-83
2021/07/29 10:34:35;;;;;;;4.57;3.87;;;23.70;94.10;;;;;;6265853;22;20706;-84
2021/07/29 10:37:08;;;;;;;4.57;4.10;;;23.50;93.60;;;;;;6295015;22;20877;-83
2021/07/29 10:39:57;;;;;;;4.50;4.10;;;23.20;93.70;;;;;;6267665;22;20471;-82
2021/07/29 10:42:29;;;;;;;4.07;3.77;;;23.20;93.50;;;;;;6270004;22;20406;-82
2021/07/29 10:44:56;;;;;;;4.20;3.80;;;23.40;93.70;;;;;;6296549;22;20481;-81
2021/07/29 10:47:44;;;;;;;4.60;4.23;;;23.60;93.70;;;;;;6300764;22;20384;-82
2021/07/29 10:50:14;;;;;;;4.17;3.77;;;24.00;93.60;;;;;;6268893;22;20392;-82
2021/07/29 10:52:43;;;;;;;6.13;3.43;;;24.10;92.30;;;;;;6270534;22;20384;-82
2021/07/29 10:55:10;;;;;;;4.40;3.97;;;23.40;93.30;;;;;;6268872;22;20396;-84
2021/07/29 10:57:35;;;;;;;3.73;3.43;;;23.70;93.60;;;;;;6295089;22;20439;-81
2021/07/29 11:00:01;;;;;;;4.00;3.50;;;23.60;93.00;;;;;;6293953;22;20961;-82
2021/07/29 11:02:47;;;;;;;4.00;3.60;;;24.00;92.30;;;;;;6267625;22;20165;-83
2021/07/29 11:05:20;;;;;;;4.00;3.70;;;23.70;92.30;;;;;;6269596;22;20710;-83
2021/07/29 11:07:47;;;;;;;4.27;3.97;;;23.40;92.80;;;;;;6295298;22;20420;-84
2021/07/29 11:10:20;;;;;;;4.23;3.83;;;22.70;94.30;;;;;;6269001;22;20487;-83
2021/07/29 11:12:47;;;;;;;4.10;3.80;;;22.80;94.70;;;;;;6269835;22;20399;-84
2021/07/29 11:15:13;;;;;;;4.53;4.13;;;22.90;94.30;;;;;;6269211;22;20392;-84
2021/07/29 11:17:39;;;;;;;4.33;3.90;;;23.40;94.00;;;;;;6268161;22;20400;-82
2021/07/29 11:20:05;;;;;;;4.80;4.17;;;23.40;93.60;;;;;;6293554;22;20407;-86
2021/07/29 11:22:45;;;;;;;4.40;4.10;;;23.40;93.70;;;;;;6271485;22;20388;-84
2021/07/29 11:25:12;;;;;;;4.00;3.67;;;23.70;93.80;;;;;;6270188;22;20477;-84
2021/07/29 11:39:04;;;;;;;4.43;4.13;;;22.80;93.30;;;;;;6243815;22;20445;-84
2021/07/29 11:45:25;;;;;;;4.40;4.10;;;24.00;92.30;;;;;;6124449;23;20768;-89
2021/07/29 11:47:53;;;;;;;4.77;3.63;;;24.00;92.30;;;;;;6210948;23;20386;-87
2021/07/29 11:50:41;;;;;;;4.47;4.10;;;24.30;92.50;;;;;;6230897;23;20397;-88
2021/07/29 11:56:19;;;;;;;4.33;4.00;;;24.40;91.80;;;;;;6261311;22;20527;-86
2021/07/29 11:59:01;;;;;;;5.43;4.40;;;25.10;91.20;;;;;;6213647;22;20439;-88
2021/07/29 12:01:28;;;;;;;4.53;4.07;;;24.50;90.60;;;;;;6238846;22;20393;-86
2021/07/29 12:03:55;;;;;;;4.73;4.20;;;24.40;90.60;;;;;;6265967;22;20412;-86
2021/07/29 12:06:22;;;;;;;4.70;4.20;;;24.50;91.60;;;;;;6237932;22;20731;-88
2021/07/29 12:08:50;;;;;;;4.27;3.90;;;25.30;90.80;;;;;;6236824;22;20397;-89
2021/07/29 12:11:18;;;;;;;5.23;4.00;;;25.50;90.00;;;;;;6264556;22;20728;-87
2021/07/29 12:13:46;;;;;;;4.70;4.30;;;25.60;87.80;;;;;;6265752;22;20828;-88
2021/07/29 12:16:15;;;;;;;4.20;3.90;;;25.10;87.70;;;;;;6236377;22;20423;-85
2021/07/29 12:19:03;;;;;;;4.83;4.43;;;25.20;87.70;;;;;;6237822;22;20401;-83
2021/07/29 12:21:35;;;;;;;5.17;3.90;;;25.60;88.90;;;;;;6237610;22;20637;-85
2021/07/29 12:24:33;;;;;;;4.90;4.30;;;25.60;86.10;;;;;;6238924;22;20454;-86
2021/07/29 12:27:18;;;;;;;4.30;4.00;;;25.60;87.20;;;;;;6209635;22;20949;-88
2021/07/29 12:30:00;;;;;;;4.53;4.00;;;26.00;83.90;;;;;;6220355;22;20826;-86
2021/07/29 12:32:29;;;;;;;4.87;4.47;;;25.50;86.60;;;;;;6208826;23;20749;-86
2021/07/29 12:34:55;;;;;;;4.70;4.30;;;25.50;86.60;;;;;;6209497;23;20414;-87
2021/07/29 12:37:40;;;;;;;4.80;4.40;;;25.00;86.90;;;;;;6207016;23;20401;-86
2021/07/29 12:40:30;;;;;;;4.63;4.23;;;25.10;89.10;;;;;;6207158;23;20464;-87
2021/07/29 12:43:29;;;;;;;4.87;4.47;;;25.40;86.70;;;;;;6209898;23;20464;-88
2021/07/29 12:46:04;;;;;;;4.03;3.73;;;25.80;85.30;;;;;;6182165;23;20450;-86
2021/07/29 12:48:31;;;;;;;4.40;4.10;;;25.90;85.00;;;;;;6233517;23;20385;-87
2021/07/29 12:50:57;;;;;;;4.00;3.70;;;26.20;83.80;;;;;;6206933;23;20455;-85
2021/07/29 12:53:24;;;;;;;4.40;4.00;;;25.60;81.90;;;;;;6235046;23;20424;-87
2021/07/29 12:55:54;;;;;;;3.97;3.67;;;25.50;82.00;;;;;;6207958;23;20456;-90
2021/07/29 12:58:47;;;;;;;4.83;4.37;;;25.30;82.50;;;;;;6234309;23;20867;-87
2021/07/29 13:01:15;;;;;;;4.20;3.90;;;25.10;83.90;;;;;;6208107;23;20401;-85
2021/07/29 13:03:45;;;;;;;4.43;4.13;;;24.90;84.70;;;;;;6202249;23;20409;-82
2021/07/29 13:06:14;;;;;;;4.40;4.00;;;25.20;87.00;;;;;;6232016;23;20440;-86
2021/07/29 13:08:39;;;;;;;6.83;4.27;;;25.50;85.90;;;;;;6206047;23;20857;-85
2021/07/29 13:11:07;;;;;;;4.60;4.20;;;25.10;85.80;;;;;;6232704;23;20390;-88
2021/07/29 13:13:42;;;;;;;5.00;4.20;;;24.80;88.30;;;;;;6208526;23;20159;-89
2021/07/29 13:16:08;;;;;;;6.80;4.53;;;25.10;88.20;;;;;;6206901;23;20605;-87
2021/07/29 13:18:40;;;;;;;6.10;4.80;;;24.70;87.50;;;;;;6208580;23;20486;-88
2021/07/29 13:21:12;;;;;;;5.17;4.67;;;24.20;88.90;;;;;;6207442;23;20659;-90
2021/07/29 13:23:38;;;;;;;3.90;3.60;;;24.10;90.50;;;;;;6210776;23;20794;-88
2021/07/29 13:26:06;;;;;;;4.43;4.03;;;24.00;90.20;;;;;;6210386;23;20441;-88
2021/07/29 13:28:32;;;;;;;4.70;4.23;;;24.00;89.80;;;;;;6236747;23;20759;-89
2021/07/29 13:31:02;;;;;;;4.50;4.10;;;24.30;89.90;;;;;;6174305;22;20438;-87
2021/07/29 13:33:28;;;;;;;4.60;4.20;;;25.40;87.70;;;;;;6146988;22;20203;-84
2021/07/29 13:35:53;;;;;;;7.27;4.10;;;25.60;85.20;;;;;;6173593;23;20380;-88
2021/07/29 13:38:19;;;;;;;4.93;3.57;;;26.20;84.60;;;;;;6147692;23;20861;-84
2021/07/29 13:40:45;;;;;;;6.13;4.47;;;26.80;81.90;;;;;;6149297;23;20156;-84
2021/07/29 13:43:10;;;;;;;5.07;4.40;;;27.30;81.20;;;;;;6148678;23;20637;-85
2021/07/29 13:45:36;;;;;;;4.73;4.40;;;27.90;79.50;;;;;;6151451;23;20493;-84
2021/07/29 13:48:02;;;;;;;4.57;4.10;;;28.50;74.80;;;;;;6148699;23;20174;-83
2021/07/29 13:50:33;;;;;;;5.10;4.70;;;28.80;76.10;;;;;;6149799;23;20605;-83
2021/07/29 13:53:00;;;;;;;4.10;3.80;;;28.30;75.80;;;;;;6175751;23;20504;-83
2021/07/29 13:55:26;;;;;;;4.23;3.83;;;29.10;74.10;;;;;;6150292;23;20426;-82
2021/07/29 13:57:52;;;;;;;4.07;3.60;;;28.90;69.40;;;;;;6150992;23;20442;-84
2021/07/29 14:00:19;;;;;;;4.00;3.70;;;29.60;70.30;;;;;;6149697;23;20380;-85
2021/07/29 14:02:45;;;;;;;4.47;4.07;;;32.40;62.70;;;;;;6150244;23;20172;-83
2021/07/29 14:05:13;;;;;;;4.30;4.00;;;33.20;55.90;;;;;;6150324;23;20439;-85
2021/07/29 14:08:03;;;;;;;;;;;;;;;;;;;;;
2021/07/29 14:10:34;;;;;;;3.90;3.60;;;32.70;55.60;;;;;;6176148;23;20903;-84
2021/07/29 14:13:00;;;;;;;4.60;3.83;;;29.40;59.40;;;;;;6150713;23;20445;-85
2021/07/29 14:15:29;;;;;;;4.97;4.10;;;27.40;65.70;;;;;;6150599;23;20407;-85
2021/07/29 14:18:02;;;;;;;3.83;3.53;;;27.10;68.10;;;;;;6149588;23;20256;-85
2021/07/29 14:20:37;;;;;;;4.80;4.40;;;27.80;66.90;;;;;;6173142;23;20411;-84
2021/07/29 14:25:48;;;;;;;5.03;4.23;;;28.90;62.40;;;;;;6178261;23;20456;-84
2021/07/29 14:30:56;;;;;;;4.23;3.83;;;;;;;;;;6177691;23;20438;-83
2021/07/29 14:33:29;;;;;;;4.00;3.70;;;;;;;;;;6156202;23;20423;-85
2021/07/29 14:36:24;;;;;;;3.50;3.30;;;;;;;;;;6175554;23;20396;-86
2021/07/29 14:39:16;;;;;;;3.87;3.57;;;;;;;;;;6176420;23;20479;-87
2021/07/29 14:41:52;;;;;;;4.70;3.73;;;;;;;;;;6174594;23;20395;-86
2021/07/29 14:44:23;;;;;;;3.83;3.53;;;;;;;;;;6175110;23;20885;-85
2021/07/29 14:49:49;;;;;;;4.00;3.60;;;;;;;;;;6176259;23;20411;-83
2021/07/29 14:52:21;;;;;;;3.70;3.30;;;;;;;;;;6175213;23;20403;-86
2021/07/29 14:54:47;;;;;;;3.57;3.23;;;;;;;;;;6175435;23;20438;-85
2021/07/29 14:57:15;;;;;;;3.87;3.50;;;;;;;;;;6174684;23;20518;-85
2021/07/29 16:09:02;;;;;;;4.10;3.80;;;32.50;48.60;;;;;;6206836;23;20433;-86
2021/07/29 16:11:29;;;;;;;4.70;3.87;;;33.50;46.60;;;;;;6178981;23;20398;-87
2021/07/29 16:14:01;;;;;;;5.53;3.63;;;32.10;48.30;;;;;;6178268;23;20403;-86
2021/07/29 16:16:28;;;;;;;4.33;3.93;;;31.80;49.00;;;;;;6204484;23;20383;-87
2021/07/29 16:18:54;;;;;;;4.00;3.70;;;31.90;48.90;;;;;;6177314;23;20840;-85
2021/07/29 16:21:20;;;;;;;4.30;3.90;;;31.10;49.80;;;;;;6205108;23;20391;-85
2021/07/29 16:23:45;;;;;;;4.47;4.03;;;31.60;48.80;;;;;;6175568;23;20168;-85
2021/07/29 16:26:11;;;;;;;4.40;4.07;;;31.30;49.90;;;;;;6177655;23;20195;-84
2021/07/29 16:28:37;;;;;;;4.10;3.80;;;31.00;50.80;;;;;;6179167;23;20190;-84
2021/07/29 16:31:04;;;;;;;3.80;3.50;;;32.00;48.90;;;;;;6177520;23;20250;-85
2021/07/29 16:33:30;;;;;;;4.30;3.90;;;31.80;49.60;;;;;;6228037;23;20445;-84
2021/07/29 16:35:55;;;;;;;4.83;4.40;;;30.50;50.10;;;;;;6177301;23;20403;-85
2021/07/29 16:38:21;;;;;;;4.00;3.70;;;30.70;51.60;;;;;;6179769;23;20167;-85
2021/07/29 16:40:47;;;;;;;3.90;3.60;;;32.10;49.00;;;;;;6203138;23;20191;-86
2021/07/29 16:43:12;;;;;;;4.37;3.97;;;33.40;46.20;;;;;;6177338;23;20168;-87
2021/07/29 16:45:38;;;;;;;4.27;3.97;;;34.40;45.40;;;;;;6177853;23;20515;-85
2021/07/29 16:48:04;;;;;;;4.50;4.10;;;35.50;44.00;;;;;;6228347;23;20159;-86
2021/07/29 16:50:30;;;;;;;4.20;3.80;;;35.00;43.80;;;;;;6175950;23;20159;-86
2021/07/29 16:52:56;;;;;;;4.30;4.00;;;32.90;46.10;;;;;;6177776;23;20166;-83
2021/07/29 16:55:22;;;;;;;4.40;4.10;;;30.90;49.90;;;;;;6177935;23;20407;-85
2021/07/29 16:57:48;;;;;;;4.23;3.93;;;30.10;51.40;;;;;;6177729;23;20606;-85
2021/07/29 17:00:14;;;;;;;5.20;3.83;;;29.90;50.60;;;;;;6177297;23;20234;-86
2021/07/29 17:02:39;;;;;;;4.00;3.70;;;30.20;50.20;;;;;;6177136;23;20248;-86
2021/07/29 17:05:06;;;;;;;3.83;3.53;;;29.90;51.30;;;;;;6178112;23;20474;-86
2021/07/29 17:07:32;;;;;;;4.20;3.90;;;29.70;51.20;;;;;;6178035;23;20558;-85
2021/07/29 17:09:57;;;;;;;4.30;4.00;;;30.70;50.80;;;;;;6204139;23;20469;-84
2021/07/29 17:12:23;;;;;;;3.87;3.57;;;30.90;50.60;;;;;;6178406;23;20239;-86
2021/07/29 17:14:49;;;;;;;4.10;3.80;;;30.30;50.70;;;;;;6177595;23;20246;-85
2021/07/29 17:17:33;;;;;;;6.80;4.80;;;30.00;51.00;;;;;;6174772;23;20888;-86
2021/07/29 17:20:03;;;;;;;5.60;5.20;;;29.10;53.00;;;;;;6202381;23;20407;-87
2021/07/29 17:22:32;;;;;;;5.03;4.33;;;28.90;55.10;;;;;;6176745;23;20386;-85
2021/07/29 17:25:02;;;;;;;4.40;4.10;;;29.90;53.50;;;;;;6202413;23;20764;-86
2021/07/29 17:27:28;;;;;;;5.27;4.80;;;29.80;52.50;;;;;;6178180;23;20410;-84
2021/07/29 17:29:54;;;;;;;4.93;4.40;;;28.30;53.40;;;;;;6176445;23;20152;-84
2021/07/29 17:32:19;;;;;;;5.07;4.57;;;28.00;54.70;;;;;;6176720;23;20251;-85
2021/07/29 17:34:45;;;;;;;4.40;4.10;;;27.70;55.70;;;;;;6177864;23;20758;-86
2021/07/29 17:37:11;;;;;;;4.73;4.30;;;27.30;56.30;;;;;;6177494;23;20490;-84
2021/07/29 17:39:43;;;;;;;4.30;3.90;;;27.30;56.90;;;;;;6227735;23;20619;-86
2021/07/29 17:42:10;;;;;;;4.60;4.20;;;28.30;56.20;;;;;;6204643;23;20171;-86
2021/07/29 17:44:37;;;;;;;4.37;4.00;;;28.90;55.30;;;;;;6175923;23;20929;-85
2021/07/29 17:47:04;;;;;;;4.90;4.40;;;29.20;54.80;;;;;;6177458;23;20209;-86
2021/07/29 17:49:30;;;;;;;4.73;4.37;;;29.20;55.10;;;;;;6176215;23;20399;-85
2021/07/29 17:51:56;;;;;;;4.60;4.20;;;27.50;57.50;;;;;;6177624;23;20405;-85
2021/07/29 17:54:22;;;;;;;4.07;3.77;;;28.60;59.00;;;;;;6177234;23;20168;-83
2021/07/29 17:57:23;;;;;;;4.17;3.77;;;30.60;56.50;;;;;;6176929;23;21160;-86
2021/07/29 19:12:36;;;;;;;4.40;3.80;;;20.70;94.70;;;;;;6186237;23;20457;-86
2021/07/29 19:16:06;;;;;;;4.70;4.10;;;20.50;95.60;;;;;;6155819;23;20875;-87
2021/07/29 19:18:57;;;;;;;6.00;5.40;;;20.30;97.20;;;;;;6203148;23;20429;-86
2021/07/29 19:28:24;;;;;;;4.20;3.90;;;19.70;99.90;;;;;;6056168;23;20482;-86
2021/07/29 19:31:56;;;;;;;4.57;4.17;;;19.40;99.90;;;;;;6030081;23;20427;-88
2021/07/29 19:34:43;;;;;;;;;;;;;;;;;;;;;
2021/07/29 19:43:55;;;;;;;4.97;4.57;;;18.90;99.90;;;;;;6030973;23;20405;-87
2021/07/29 19:57:13;;;;;;;5.10;4.30;;;18.60;99.90;;;;;;5995601;23;20439;-87
2021/07/29 20:00:02;;;;;;;4.63;4.23;;;18.60;99.90;;;;;;5913607;24;20458;-88
2021/07/29 21:09:47;;;;;;;6.30;4.93;;;17.00;99.90;;;;;;6233686;22;20449;-88
2021/07/29 21:12:33;;;;;;;10.43;5.77;;;17.00;99.90;;;;;;6208581;23;20405;-87